• Join FlightAware (Why Join?)
  • Login
  • US Flag 
06:59PM EDT


 

Airport Tracker/Info


-or-


 

Live Flight TrackerFlight Track Log ✈ AWE1454 ✈ 21-Apr-2013 ✈ KPHL - KMHT

Flight Track Log - Related Links

Times and Time Zones

All times are in EDT time to prevent confusion due to time zone crossing. See the AWE1454 flight status page for this flight to view local times or setup timezone preferences in your user account.

Time Position Orientation Groundspeed Altitude Reporting Facility
EDT Latitude Longitude Course Direction KTS MPH feet Rate Location/Type
04:24PM 39.8756 -75.2161 37° Northeast 133 153 1,100  Level FAA TRACON SMA TRACON (SMA)
04:25PM 39.8725 -75.1981 102° East 164 189 1,500 1,140 Climbing FAA TRACON SMA TRACON (SMA)
04:25PM 39.8683 -75.1725 102° East 211 243 1,900 1,860 Climbing FAA TRACON SMA TRACON (SMA)
04:25PM 39.8653 -75.1494 100° East 207 238 2,800 2,580 Climbing FAA TRACON SMA TRACON (SMA)
04:26PM 39.8625 -75.1269 99° East 208 239 3,600 2,760 Climbing FAA TRACON SMA TRACON (SMA)
04:26PM 39.8561 -75.0942 104° East 243 280 4,600 3,000 Climbing FAA TRACON SMA TRACON (SMA)
04:26PM 39.8519 -75.0672 101° East 248 285 5,600 3,300 Climbing FAA TRACON SMA TRACON (SMA)
04:27PM 39.7891 -74.6943 37° Northeast  Level FlightAware Approximate
04:27PM 39.8469 -75.0394 103° East 255 293 6,800  Level FAA TRACON SMA TRACON (SMA)
04:27PM 39.8408 -75.0022 102° East 262 302 7,900 3,120 Climbing FAA TRACON SMA TRACON (SMA)
04:27PM 39.8358 -74.9711 102° East 282 325 8,900 2,820 Climbing FAA TRACON SMA TRACON (SMA)
04:28PM 39.8750 -74.6084 37° Northeast  Level FlightAware Approximate
04:28PM 39.8308 -74.9403 102° East 287 330 9,800  Level FAA TRACON SMA TRACON (SMA)
04:28PM 39.8239 -74.8989 102° East 298 343 10,800 1,920 Climbing FAA TRACON SMA TRACON (SMA)
04:28PM 39.8181 -74.8631 102° East 320 368 11,100 1,320 Climbing FAA TRACON SMA TRACON (SMA)
04:29PM 39.9644 -74.5357 37° Northeast  Level FlightAware Approximate
04:29PM 39.8117 -74.8253 102° East 350 403 11,700  Level FAA TRACON SMA TRACON (SMA)
04:29PM 39.8042 -74.7781 102° East 355 409 12,700 3,000 Climbing FAA TRACON SMA TRACON (SMA)
04:29PM 39.8058 -74.7364 87° East 367 422 13,700 2,580 Climbing FAA TRACON SMA TRACON (SMA)
04:30PM 39.8183 -74.7011 65° Northeast 375 432 14,500 2,760 Climbing FAA TRACON SMA TRACON (SMA)
04:30PM 39.8467 -74.6631 46° Northeast 366 421 15,600 3,180 Climbing FAA TRACON SMA TRACON (SMA)
04:30PM 39.8719 -74.6389 36° Northeast 369 425 16,600 2,460 Climbing FAA TRACON SMA TRACON (SMA)
04:31PM 39.8978 -74.6142 36° Northeast 375 432 17,200 2,100 Climbing FAA TRACON SMA TRACON (SMA)
04:31PM 39.9303 -74.5814 38° Northeast 381 438 18,000 900 Climbing FAA TRACON SMA TRACON (SMA)
04:31PM 39.9506 -74.5619 36° Northeast 388 447 17,800 120 Descending FAA TRACON SMA TRACON (SMA)
04:32PM 39.9633 -74.5492 37° Northeast 391 450 18,100 300 Climbing FAA TRACON SMA TRACON (SMA)
04:32PM 39.9633 -74.5492 37° Northeast 391 450 18,100 1,860 Level FAA TRACON SMA TRACON (SMA)
04:34PM 40.2281 -74.2833 37° Northeast 426 490 23,100 2,220 Climbing New York Center
04:35PM 40.3311 -74.1825 37° Northeast 440 506 24,800 1,620 Climbing New York Center
04:36PM 40.4439 -74.1008 29° Northeast 459 528 26,500 1,500 Climbing New York Center
04:39PM 40.7406 -73.8808 29° Northeast 487 560 29,900 1,380 Climbing Boston Center
04:40PM 40.8606 -73.7958 28° Northeast 487 560 31,200 1,200 Climbing Boston Center
04:41PM 40.9881 -73.7681 North 472 543 32,400 900 Climbing Boston Center
04:42PM 41.1169 -73.7872 354° North 455 524 33,000 300 Climbing Boston Center
04:43PM 41.2500 -73.8039 355° North 453 521 33,000  Level Boston Center
04:44PM 41.3833 -73.8122 357° North 465 535 33,000  Level Boston Center
04:45PM 41.5167 -73.8153 359° North 476 548 33,000  Level Boston Center
04:46PM 41.6500 -73.8236 357° North 476 548 33,000  Level Boston Center
04:47PM 41.7814 -73.8208 North 476 548 33,000  Level Boston Center
04:48PM 41.9125 -73.8211 360° North 471 542 33,000 -600 Level Boston Center
04:49PM 42.0419 -73.8156 North 471 542 31,900 -2,100 Descending Boston Center
04:50PM 42.1639 -73.7342 26° Northeast 467 537 28,800 -2,940 Descending Boston Center
04:51PM 42.2447 -73.5758 55° Northeast 461 531 26,100 -2,700 Descending Boston Center
04:52PM 42.3108 -73.4228 60° Northeast 461 531 23,500 -2,520 Descending Boston Center
04:53PM 42.3744 -73.2747 60° Northeast 465 535 21,100 -2,160 Descending Boston Center
04:54PM 42.4231 -73.1600 60° Northeast 454 522 19,200 -1,080 Descending Boston Center
04:55PM 42.4844 -73.0144 60° Northeast 410 472 19,000 -120 Descending Boston Center
04:56PM 42.5433 -72.8769 60° Northeast 415 478 19,000  Level Boston Center
04:57PM 42.6022 -72.7447 59° Northeast 415 478 19,000 -720 Level Boston Center
04:58PM 42.6544 -72.5728 68° East 404 465 17,500 -1,800 Descending Boston Center
04:59PM 42.6900 -72.4372 70° East 393 452 15,400 -2,100 Descending Boston Center
05:00PM 42.7256 -72.3072 70° East 377 434 13,300 -2,100 Descending Boston Center
05:01PM 42.7564 -72.1828 71° East 350 403 11,200 -1,500 Descending Boston Center
05:02PM 42.7644 -72.0556 85° East 324 373 10,300 -1,080 Descending Boston Center
05:03PM 42.7661 -71.9564 89° East 299 344 9,100 -1,500 Descending Boston Center
05:04PM 42.7697 -71.8433 87° East 273 314 7,400 -1,680 Descending Boston Center
05:05PM 42.7733 -71.7444 87° East 267 307 5,800 -1,500 Descending Boston Center
05:06PM 42.7789 -71.6453 86° East 267 307 4,400 -900 Descending Boston Center
05:07PM 42.7825 -71.5575 87° East 245 282 4,100 -240 Descending Boston Center
05:08PM 42.7861 -71.4756 87° East 222 255 4,000 -600 Descending Boston Center
05:09PM 42.7981 -71.4100 76° East 190 219 3,000 -900 Descending Boston Center
05:10PM 42.8308 -71.3700 42° Northeast 152 175 2,300 -720 Descending Boston Center